createdAt,value
2023-09-25T00:01:25.733Z,15.10
2023-09-25T00:03:52.585Z,15.00
2023-09-25T00:06:19.850Z,14.90
2023-09-25T00:08:46.538Z,14.90
2023-09-25T00:11:13.289Z,14.80
2023-09-25T00:13:40.407Z,14.80
2023-09-25T00:16:12.458Z,14.70
2023-09-25T00:18:40.779Z,14.70
2023-09-25T00:21:07.522Z,14.70
2023-09-25T00:23:34.194Z,14.70
2023-09-25T00:26:04.829Z,14.60
2023-09-25T00:28:32.267Z,14.60
2023-09-25T00:30:59.200Z,14.60
2023-09-25T00:33:26.051Z,14.50
2023-09-25T00:35:54.663Z,14.50
2023-09-25T00:38:22.145Z,14.50
2023-09-25T00:40:49.195Z,14.40
2023-09-25T00:43:15.884Z,14.40
2023-09-25T00:45:44.838Z,14.30
2023-09-25T00:48:30.682Z,14.30
2023-09-25T00:51:00.352Z,14.30
2023-09-25T00:53:29.812Z,14.30
2023-09-25T00:55:57.356Z,14.20
2023-09-25T00:58:27.539Z,14.20
2023-09-25T01:00:54.965Z,14.20
2023-09-25T01:03:21.908Z,14.30
2023-09-25T01:05:49.177Z,14.30
2023-09-25T01:08:16.425Z,14.20
2023-09-25T01:10:43.895Z,14.20
2023-09-25T01:13:11.579Z,14.20
2023-09-25T01:15:40.431Z,14.20
2023-09-25T01:18:09.619Z,14.20
2023-09-25T01:20:37.543Z,14.10
2023-09-25T01:23:04.801Z,14.10
2023-09-25T01:25:31.757Z,14.10
2023-09-25T01:27:58.384Z,14.00
2023-09-25T01:30:25.418Z,14.00
2023-09-25T01:32:53.408Z,14.00
2023-09-25T01:35:24.653Z,14.00
2023-09-25T01:37:55.891Z,14.10
2023-09-25T01:40:22.734Z,14.00
2023-09-25T01:42:49.537Z,14.00
2023-09-25T01:45:18.921Z,14.00
2023-09-25T01:47:53.897Z,14.00
2023-09-25T01:50:28.989Z,14.00
2023-09-25T01:52:56.676Z,14.00
2023-09-25T01:55:23.494Z,14.00
2023-09-25T01:57:50.165Z,14.00
2023-09-25T02:00:19.852Z,14.00
2023-09-25T02:02:48.385Z,13.90
2023-09-25T02:05:15.871Z,13.90
2023-09-25T02:07:42.814Z,13.90
2023-09-25T02:10:10.554Z,13.90
2023-09-25T02:12:37.715Z,13.90
2023-09-25T02:15:07.931Z,13.90
2023-09-25T02:17:35.380Z,13.90
2023-09-25T02:20:13.637Z,13.80
2023-09-25T02:22:41.672Z,13.80
2023-09-25T02:25:09.865Z,13.80
2023-09-25T02:27:37.728Z,13.80
2023-09-25T02:30:05.223Z,13.70
2023-09-25T02:32:31.885Z,13.70
2023-09-25T02:34:58.574Z,13.70
2023-09-25T02:37:25.220Z,13.70
2023-09-25T02:39:52.056Z,13.70
2023-09-25T02:42:19.009Z,13.60
2023-09-25T02:44:45.897Z,13.60
2023-09-25T02:47:12.552Z,13.50
2023-09-25T02:49:39.269Z,13.50
2023-09-25T02:52:05.978Z,13.50
2023-09-25T02:54:32.661Z,13.50
2023-09-25T02:56:59.526Z,13.50
2023-09-25T02:59:26.378Z,13.40
2023-09-25T03:01:54.024Z,13.40
2023-09-25T03:04:20.893Z,13.40
2023-09-25T03:06:47.658Z,13.40
2023-09-25T03:09:14.519Z,13.30
2023-09-25T03:11:41.388Z,13.30
2023-09-25T03:14:08.166Z,13.30
2023-09-25T03:16:35.193Z,13.30
2023-09-25T03:19:02.218Z,13.20
2023-09-25T03:21:29.144Z,13.20
2023-09-25T03:23:56.218Z,13.10
2023-09-25T03:26:23.131Z,13.10
2023-09-25T03:28:50.873Z,13.10
2023-09-25T03:31:17.796Z,13.10
2023-09-25T03:33:47.086Z,13.10
2023-09-25T03:36:14.756Z,13.10
2023-09-25T03:38:41.656Z,13.10
2023-09-25T03:41:08.607Z,13.10
2023-09-25T03:43:35.374Z,13.00
2023-09-25T03:46:03.357Z,13.10
2023-09-25T03:48:30.471Z,13.00
2023-09-25T03:50:57.125Z,13.00
2023-09-25T03:53:23.942Z,12.90
2023-09-25T03:55:51.010Z,13.00
2023-09-25T03:58:21.442Z,12.90
2023-09-25T04:00:48.406Z,12.90
2023-09-25T04:03:15.444Z,12.90
2023-09-25T04:05:42.191Z,12.90
2023-09-25T04:08:09.728Z,12.80
2023-09-25T04:10:36.501Z,12.80
2023-09-25T04:13:03.293Z,12.80
2023-09-25T04:15:30.257Z,12.80
2023-09-25T04:17:58.795Z,12.80
2023-09-25T04:20:26.137Z,12.80
2023-09-25T04:22:54.226Z,12.80
2023-09-25T04:25:21.184Z,12.80
2023-09-25T04:27:55.480Z,12.80
2023-09-25T04:30:24.617Z,12.80
2023-09-25T04:32:56.395Z,12.80
2023-09-25T04:35:24.355Z,12.80
2023-09-25T04:37:51.748Z,12.80
2023-09-25T04:40:24.155Z,12.80
2023-09-25T04:42:52.247Z,12.70
2023-09-25T04:45:20.253Z,12.70
2023-09-25T04:47:53.857Z,12.70
2023-09-25T04:50:24.731Z,12.70
2023-09-25T04:52:51.928Z,12.70
2023-09-25T04:55:18.672Z,12.70
2023-09-25T04:57:47.514Z,12.70
2023-09-25T05:00:22.985Z,12.70
2023-09-25T05:02:51.022Z,12.70
2023-09-25T05:05:18.816Z,12.80
2023-09-25T05:07:48.915Z,12.70
2023-09-25T05:10:17.562Z,12.60
2023-09-25T05:12:45.220Z,12.60
2023-09-25T05:15:13.272Z,12.60
2023-09-25T05:17:41.657Z,12.60
2023-09-25T05:20:13.299Z,12.70
2023-09-25T05:22:41.601Z,12.70
2023-09-25T05:25:10.250Z,12.70
2023-09-25T05:27:38.258Z,12.70
2023-09-25T05:30:06.982Z,12.70
2023-09-25T05:32:34.865Z,12.70
2023-09-25T05:35:01.601Z,12.70
2023-09-25T05:37:28.229Z,12.70
2023-09-25T05:39:55.217Z,12.70
2023-09-25T05:42:21.979Z,12.70
2023-09-25T05:44:48.619Z,12.70
2023-09-25T05:47:15.234Z,12.70
2023-09-25T05:49:42.362Z,12.70
2023-09-25T05:52:09.122Z,12.70
2023-09-25T05:54:35.772Z,12.70
2023-09-25T05:57:02.468Z,12.80
2023-09-25T05:59:29.513Z,12.80
2023-09-25T06:01:56.129Z,12.80
2023-09-25T06:04:22.983Z,12.80
2023-09-25T06:06:49.765Z,12.80
2023-09-25T06:09:17.394Z,12.90
2023-09-25T06:11:44.761Z,12.90
2023-09-25T06:14:11.425Z,12.90
2023-09-25T06:16:38.035Z,12.90
2023-09-25T06:19:05.142Z,13.00
2023-09-25T06:21:32.088Z,13.00
2023-09-25T06:23:58.791Z,13.00
2023-09-25T06:26:28.744Z,13.10
2023-09-25T06:28:56.045Z,13.10
2023-09-25T06:31:24.713Z,13.10
2023-09-25T06:33:51.695Z,13.10
2023-09-25T06:36:18.498Z,13.10
2023-09-25T06:38:45.129Z,13.20
2023-09-25T06:41:12.237Z,13.30
2023-09-25T06:43:40.869Z,13.30
2023-09-25T06:46:07.544Z,13.30
2023-09-25T06:48:34.363Z,13.30
2023-09-25T06:51:01.112Z,13.40
2023-09-25T06:53:28.047Z,13.40
2023-09-25T06:55:54.690Z,13.50
2023-09-25T06:58:21.414Z,13.50
2023-09-25T07:00:56.919Z,13.50
2023-09-25T07:03:24.749Z,13.50
2023-09-25T07:05:51.616Z,13.50
2023-09-25T07:08:19.661Z,13.50
2023-09-25T07:10:50.242Z,13.60
2023-09-25T07:13:17.552Z,13.70
2023-09-25T07:15:47.271Z,13.80
2023-09-25T07:18:15.228Z,13.90
2023-09-25T07:20:42.012Z,14.00
2023-09-25T07:23:08.728Z,14.10
2023-09-25T07:25:35.372Z,14.20
2023-09-25T07:28:02.224Z,14.30
2023-09-25T07:30:29.900Z,14.30
2023-09-25T07:32:57.102Z,14.30
2023-09-25T07:35:24.064Z,14.30
2023-09-25T07:37:50.708Z,14.50
2023-09-25T07:40:19.878Z,14.60
2023-09-25T07:42:46.712Z,14.70
2023-09-25T07:45:13.767Z,14.80
2023-09-25T07:47:42.151Z,14.90
2023-09-25T07:50:12.676Z,15.10
2023-09-25T07:52:39.887Z,15.10
2023-09-25T07:55:09.788Z,15.20
2023-09-25T07:57:36.528Z,15.30
2023-09-25T08:00:18.676Z,15.40
2023-09-25T08:02:48.805Z,15.50
2023-09-25T08:05:16.656Z,15.70
2023-09-25T08:07:43.424Z,15.70
2023-09-25T08:10:11.980Z,15.90
2023-09-25T08:12:38.664Z,16.00
2023-09-25T08:15:06.848Z,16.00
2023-09-25T08:17:33.836Z,16.20
2023-09-25T08:20:00.653Z,16.30
2023-09-25T08:22:27.440Z,16.30
2023-09-25T08:24:54.180Z,16.50
2023-09-25T08:27:21.951Z,16.50
2023-09-25T08:29:48.678Z,16.70
2023-09-25T08:32:16.353Z,16.80
2023-09-25T08:34:43.084Z,16.90
2023-09-25T08:37:09.679Z,17.00
2023-09-25T08:39:36.816Z,17.00
2023-09-25T08:42:04.003Z,16.90
2023-09-25T08:44:30.775Z,16.90
2023-09-25T08:46:57.713Z,17.00
2023-09-25T08:49:25.156Z,17.10
2023-09-25T08:51:53.476Z,17.20
2023-09-25T08:54:20.436Z,17.30
2023-09-25T08:56:48.543Z,17.40
2023-09-25T08:59:16.402Z,17.50
2023-09-25T09:01:44.648Z,17.60
2023-09-25T09:04:11.748Z,17.70
2023-09-25T09:06:38.648Z,17.80
2023-09-25T09:09:05.530Z,17.90
2023-09-25T09:11:35.047Z,17.90
2023-09-25T09:14:02.928Z,18.10
2023-09-25T09:16:31.317Z,18.20
2023-09-25T09:19:08.179Z,18.30
2023-09-25T09:21:35.021Z,18.30
2023-09-25T09:24:01.714Z,18.50
2023-09-25T09:26:29.097Z,18.50
2023-09-25T09:28:57.451Z,18.60
2023-09-25T09:31:24.112Z,18.70
2023-09-25T09:33:55.060Z,18.80
2023-09-25T09:36:21.976Z,18.80
2023-09-25T09:38:49.832Z,18.90
2023-09-25T09:41:17.078Z,18.90
2023-09-25T09:43:43.858Z,18.90
2023-09-25T09:46:13.898Z,19.00
2023-09-25T09:48:42.330Z,19.10
2023-09-25T09:51:12.044Z,19.10
2023-09-25T09:53:39.418Z,19.20
2023-09-25T09:56:07.383Z,19.30
2023-09-25T09:58:37.910Z,19.40
2023-09-25T10:01:04.665Z,19.40
2023-09-25T10:03:32.664Z,19.50
2023-09-25T10:06:00.164Z,19.60
2023-09-25T10:08:26.780Z,19.60
2023-09-25T10:10:53.674Z,19.70
2023-09-25T10:13:27.906Z,19.70
2023-09-25T10:16:03.809Z,19.80
2023-09-25T10:18:31.593Z,19.90
2023-09-25T10:21:10.434Z,20.00
2023-09-25T10:23:41.511Z,20.10
2023-09-25T10:26:26.340Z,20.30
2023-09-25T10:29:15.901Z,20.40
2023-09-25T10:31:47.299Z,20.60
2023-09-25T10:34:14.306Z,20.60
2023-09-25T10:36:42.737Z,20.50
2023-09-25T10:39:10.745Z,20.60
2023-09-25T10:41:38.879Z,20.70
2023-09-25T10:44:06.065Z,20.80
2023-09-25T10:46:33.267Z,20.80
2023-09-25T10:49:01.327Z,21.00
2023-09-25T10:51:28.060Z,21.00
2023-09-25T10:53:55.407Z,21.00
2023-09-25T10:56:22.451Z,21.10
2023-09-25T10:58:53.144Z,21.20
2023-09-25T11:01:28.876Z,21.30
2023-09-25T11:03:58.516Z,21.30
2023-09-25T11:06:26.489Z,21.30
2023-09-25T11:09:06.056Z,21.40
2023-09-25T11:11:33.963Z,21.50
2023-09-25T11:14:01.060Z,21.70
2023-09-25T11:16:29.209Z,21.40
2023-09-25T11:19:16.533Z,21.60
2023-09-25T11:21:52.013Z,21.60
2023-09-25T11:24:19.666Z,21.70
2023-09-25T11:26:46.338Z,21.80
2023-09-25T11:29:13.730Z,21.80
2023-09-25T11:34:11.282Z,21.90
2023-09-25T11:36:46.126Z,22.00
2023-09-25T11:39:16.871Z,21.90
2023-09-25T11:41:44.544Z,21.90
2023-09-25T11:44:11.237Z,21.90
2023-09-25T11:46:38.264Z,22.00
2023-09-25T11:49:05.696Z,22.00
2023-09-25T11:51:34.578Z,22.00
2023-09-25T11:54:03.231Z,22.00
2023-09-25T11:56:32.330Z,22.00
2023-09-25T11:58:58.992Z,22.00
2023-09-25T12:01:25.831Z,22.00
2023-09-25T12:03:52.719Z,22.10
2023-09-25T12:06:22.586Z,22.20
2023-09-25T12:08:50.425Z,22.20
2023-09-25T12:11:17.182Z,22.30
2023-09-25T12:13:44.612Z,22.40
2023-09-25T12:16:12.081Z,22.30
2023-09-25T12:18:38.907Z,22.40
2023-09-25T12:21:08.875Z,22.60
2023-09-25T12:23:35.755Z,22.70
2023-09-25T12:26:02.797Z,22.70
2023-09-25T12:28:30.362Z,22.80
2023-09-25T12:30:57.866Z,22.80
2023-09-25T12:33:25.417Z,22.70
2023-09-25T12:35:53.317Z,22.60
2023-09-25T12:38:20.245Z,22.50
2023-09-25T12:40:47.586Z,22.40
2023-09-25T12:43:14.333Z,22.30
2023-09-25T12:45:41.086Z,22.10
2023-09-25T12:48:08.035Z,22.20
2023-09-25T12:50:34.971Z,22.20
2023-09-25T12:53:01.741Z,22.10
2023-09-25T12:55:31.988Z,22.20
2023-09-25T12:57:58.707Z,22.30
2023-09-25T13:00:26.324Z,22.40
2023-09-25T13:02:53.659Z,22.50
2023-09-25T13:05:20.641Z,22.50
2023-09-25T13:07:47.408Z,22.50
2023-09-25T13:10:14.115Z,22.60
2023-09-25T13:12:41.061Z,22.60
2023-09-25T13:15:08.633Z,22.60
2023-09-25T13:17:36.806Z,22.70
2023-09-25T13:20:08.603Z,22.70
2023-09-25T13:22:37.614Z,22.60
2023-09-25T13:25:06.017Z,22.60
2023-09-25T13:27:32.984Z,22.60
2023-09-25T13:29:59.707Z,22.70
2023-09-25T13:32:26.338Z,22.90
2023-09-25T13:34:53.000Z,23.00
2023-09-25T13:37:19.993Z,23.00
2023-09-25T13:39:46.865Z,22.90
2023-09-25T13:42:13.747Z,22.90
2023-09-25T13:44:41.923Z,22.90
2023-09-25T13:47:09.440Z,22.90
2023-09-25T13:49:36.122Z,23.00
2023-09-25T13:52:02.774Z,23.10
2023-09-25T13:54:29.492Z,23.10
2023-09-25T13:56:57.404Z,22.90
2023-09-25T13:59:24.105Z,22.80
2023-09-25T14:01:50.980Z,22.60
2023-09-25T14:04:17.842Z,22.60
2023-09-25T14:06:46.199Z,22.70
2023-09-25T14:09:13.516Z,22.70
2023-09-25T14:11:40.578Z,22.80
2023-09-25T14:14:09.160Z,22.80
2023-09-25T14:16:36.412Z,22.80
2023-09-25T14:19:05.075Z,23.00
2023-09-25T14:21:31.909Z,22.90
2023-09-25T14:23:58.599Z,23.00
2023-09-25T14:26:25.317Z,23.00
2023-09-25T14:28:52.028Z,23.10
2023-09-25T14:31:19.349Z,23.10
2023-09-25T14:33:46.383Z,23.10
2023-09-25T14:36:13.127Z,23.00
2023-09-25T14:38:39.768Z,22.80
2023-09-25T14:41:09.089Z,22.80
2023-09-25T14:43:35.700Z,22.70
2023-09-25T14:46:02.559Z,22.70
2023-09-25T14:48:29.543Z,22.80
2023-09-25T14:50:57.455Z,22.80
2023-09-25T14:53:24.284Z,22.70
2023-09-25T14:55:56.695Z,22.80
2023-09-25T14:58:24.794Z,22.80
2023-09-25T15:00:58.998Z,22.90
2023-09-25T15:03:26.460Z,23.00
2023-09-25T15:05:53.319Z,23.00
2023-09-25T15:08:25.048Z,23.00
2023-09-25T15:10:55.836Z,23.00
2023-09-25T15:13:22.874Z,22.80
2023-09-25T15:15:49.991Z,22.70
2023-09-25T15:18:17.539Z,22.80
2023-09-25T15:20:44.330Z,22.80
2023-09-25T15:23:11.975Z,22.80
2023-09-25T15:25:38.898Z,22.80
2023-09-25T15:28:06.096Z,23.00
2023-09-25T15:30:32.852Z,23.00
2023-09-25T15:32:59.561Z,23.00
2023-09-25T15:35:26.390Z,23.10
2023-09-25T15:37:52.983Z,23.10
2023-09-25T15:40:24.010Z,23.20
2023-09-25T15:42:52.319Z,23.10
2023-09-25T15:45:19.571Z,23.20
2023-09-25T15:47:46.244Z,23.20
2023-09-25T15:50:12.897Z,23.20
2023-09-25T15:52:39.496Z,23.20
2023-09-25T15:55:07.295Z,23.20
2023-09-25T15:57:34.079Z,23.20
2023-09-25T16:00:00.805Z,23.10
2023-09-25T16:02:27.485Z,23.20
2023-09-25T16:04:54.222Z,23.20
2023-09-25T16:07:20.911Z,23.40
2023-09-25T16:09:47.739Z,23.50
2023-09-25T16:12:14.500Z,23.80
2023-09-25T16:14:41.208Z,23.90
2023-09-25T16:17:07.925Z,24.10
2023-09-25T16:19:34.662Z,24.30
2023-09-25T16:22:04.408Z,24.40
2023-09-25T16:24:31.724Z,24.60
2023-09-25T16:26:58.348Z,24.70
2023-09-25T16:29:25.146Z,24.80
2023-09-25T16:31:52.381Z,24.90
2023-09-25T16:34:19.142Z,25.00
2023-09-25T16:36:45.866Z,25.10
2023-09-25T16:39:13.248Z,25.10
2023-09-25T16:41:39.972Z,25.10
2023-09-25T16:44:07.036Z,25.20
2023-09-25T16:46:35.311Z,25.40
2023-09-25T16:49:02.672Z,25.40
2023-09-25T16:51:29.559Z,25.40
2023-09-25T16:53:56.322Z,25.30
2023-09-25T16:56:23.428Z,25.40
2023-09-25T16:58:50.160Z,25.30
2023-09-25T17:01:17.118Z,25.10
2023-09-25T17:03:44.488Z,25.00
2023-09-25T17:06:11.472Z,24.90
2023-09-25T17:08:38.934Z,24.70
2023-09-25T17:11:05.605Z,24.60
2023-09-25T17:13:32.203Z,24.30
2023-09-25T17:15:59.165Z,24.10
2023-09-25T17:18:25.906Z,24.00
2023-09-25T17:20:52.757Z,24.00
2023-09-25T17:23:19.419Z,23.80
2023-09-25T17:25:48.714Z,23.70
2023-09-25T17:28:15.422Z,23.60
2023-09-25T17:30:51.476Z,23.40
2023-09-25T17:33:25.924Z,23.30
2023-09-25T17:35:53.619Z,23.20
2023-09-25T17:38:21.063Z,23.10
2023-09-25T17:40:48.786Z,23.00
2023-09-25T17:43:15.583Z,22.90
2023-09-25T17:45:42.340Z,22.80
2023-09-25T17:48:09.524Z,22.70
2023-09-25T17:50:36.675Z,22.60
2023-09-25T17:53:03.495Z,22.50
2023-09-25T17:55:30.219Z,22.50
2023-09-25T17:57:56.907Z,22.40
2023-09-25T18:00:24.378Z,22.30
2023-09-25T18:02:51.715Z,22.30
2023-09-25T18:05:18.402Z,22.20
2023-09-25T18:07:45.022Z,22.10
2023-09-25T18:10:11.685Z,22.00
2023-09-25T18:12:42.067Z,22.00
2023-09-25T18:15:10.859Z,21.90
2023-09-25T18:17:37.691Z,21.90
2023-09-25T18:20:05.539Z,21.80
2023-09-25T18:22:32.990Z,21.80
2023-09-25T18:25:00.027Z,21.70
2023-09-25T18:27:30.769Z,21.60
2023-09-25T18:29:57.747Z,21.50
2023-09-25T18:32:24.367Z,21.40
2023-09-25T18:34:50.996Z,21.40
2023-09-25T18:37:17.702Z,21.40
2023-09-25T18:39:45.166Z,21.30
2023-09-25T18:42:11.923Z,21.20
2023-09-25T18:44:38.802Z,21.10
2023-09-25T18:47:05.541Z,21.10
2023-09-25T18:49:32.410Z,20.90
2023-09-25T18:51:59.186Z,20.80
2023-09-25T18:54:25.997Z,20.70
2023-09-25T18:56:53.982Z,20.60
2023-09-25T18:59:20.673Z,20.50
2023-09-25T19:01:47.379Z,20.40
2023-09-25T19:04:14.048Z,20.30
2023-09-25T19:06:40.747Z,20.30
2023-09-25T19:09:07.367Z,20.20
2023-09-25T19:11:33.947Z,20.20
2023-09-25T19:14:00.574Z,20.10
2023-09-25T19:16:27.305Z,20.10
2023-09-25T19:18:57.846Z,20.00
2023-09-25T19:21:28.686Z,19.90
2023-09-25T19:23:59.381Z,19.90
2023-09-25T19:26:26.333Z,19.80
2023-09-25T19:28:56.171Z,19.70
2023-09-25T19:31:37.478Z,19.60
2023-09-25T19:34:06.714Z,19.60
2023-09-25T19:36:34.373Z,19.50
2023-09-25T19:39:01.029Z,19.40
2023-09-25T19:41:27.825Z,19.30
2023-09-25T19:43:54.598Z,19.30
2023-09-25T19:46:21.440Z,19.30
2023-09-25T19:48:48.155Z,19.20
2023-09-25T19:51:14.869Z,19.10
2023-09-25T19:53:41.480Z,19.00
2023-09-25T19:56:08.196Z,19.00
2023-09-25T19:58:34.933Z,19.10
2023-09-25T20:01:15.525Z,19.00
2023-09-25T20:03:43.204Z,19.00
2023-09-25T20:06:10.020Z,18.90
2023-09-25T20:08:36.787Z,18.90
2023-09-25T20:11:04.799Z,18.70
2023-09-25T20:13:31.616Z,18.70
2023-09-25T20:15:58.346Z,18.70
2023-09-25T20:18:25.242Z,18.60
2023-09-25T20:20:54.414Z,18.50
2023-09-25T20:23:22.445Z,18.50
2023-09-25T20:25:49.597Z,18.40
2023-09-25T20:28:16.257Z,18.40
2023-09-25T20:30:43.237Z,18.40
2023-09-25T20:33:09.957Z,18.40
2023-09-25T20:35:37.098Z,18.40
2023-09-25T20:38:04.510Z,18.30
2023-09-25T20:40:31.387Z,18.30
2023-09-25T20:42:58.452Z,18.20
2023-09-25T20:45:26.206Z,18.10
2023-09-25T20:47:54.925Z,18.10
2023-09-25T20:50:27.667Z,18.00
2023-09-25T20:52:55.334Z,18.00
2023-09-25T20:55:23.109Z,18.00
2023-09-25T20:57:49.874Z,18.00
2023-09-25T21:00:16.848Z,18.00
2023-09-25T21:02:43.593Z,17.90
2023-09-25T21:05:10.610Z,17.80
2023-09-25T21:07:37.923Z,17.70
2023-09-25T21:10:05.306Z,17.70
2023-09-25T21:12:31.976Z,17.60
2023-09-25T21:14:58.595Z,17.50
2023-09-25T21:17:25.267Z,17.50
2023-09-25T21:19:51.882Z,17.50
2023-09-25T21:22:18.579Z,17.50
2023-09-25T21:24:45.362Z,17.50
2023-09-25T21:27:12.550Z,17.40
2023-09-25T21:29:39.239Z,17.40
2023-09-25T21:32:05.884Z,17.40
2023-09-25T21:34:33.423Z,17.40
2023-09-25T21:37:00.179Z,17.40
2023-09-25T21:39:26.921Z,17.30
2023-09-25T21:41:53.553Z,17.40
2023-09-25T21:44:20.205Z,17.30
2023-09-25T21:46:46.904Z,17.30
2023-09-25T21:49:13.732Z,17.20
2023-09-25T21:51:40.556Z,17.20
2023-09-25T21:54:10.499Z,17.20
2023-09-25T21:56:37.234Z,17.10
2023-09-25T21:59:04.235Z,17.10
2023-09-25T22:01:31.001Z,17.10
2023-09-25T22:03:57.866Z,17.10
2023-09-25T22:06:25.500Z,17.10
2023-09-25T22:08:52.602Z,17.00
2023-09-25T22:11:19.865Z,17.00
2023-09-25T22:13:49.321Z,16.90
2023-09-25T22:16:16.349Z,16.90
2023-09-25T22:18:43.344Z,16.90
2023-09-25T22:21:15.345Z,16.90
2023-09-25T22:23:43.918Z,16.80
2023-09-25T22:26:11.273Z,16.80
2023-09-25T22:28:39.426Z,16.70
2023-09-25T22:31:17.257Z,16.70
2023-09-25T22:33:44.813Z,16.60
2023-09-25T22:36:11.811Z,16.60
2023-09-25T22:38:38.649Z,16.60
2023-09-25T22:41:05.412Z,16.50
2023-09-25T22:43:32.989Z,16.40
2023-09-25T22:46:00.073Z,16.40
2023-09-25T22:48:26.868Z,16.30
2023-09-25T22:50:53.890Z,16.30
2023-09-25T22:53:20.589Z,16.30
2023-09-25T22:55:47.252Z,16.30
2023-09-25T22:58:13.885Z,16.20
2023-09-25T23:00:40.584Z,16.20
2023-09-25T23:03:07.296Z,16.20
2023-09-25T23:05:33.907Z,16.20
2023-09-25T23:08:00.539Z,16.20
2023-09-25T23:10:27.165Z,16.10
2023-09-25T23:12:54.406Z,16.10
2023-09-25T23:15:21.039Z,16.10
2023-09-25T23:17:47.779Z,16.00
2023-09-25T23:20:17.683Z,16.00
2023-09-25T23:22:46.808Z,15.90
2023-09-25T23:25:20.691Z,15.80
2023-09-25T23:27:48.256Z,15.80
2023-09-25T23:30:15.923Z,15.70
2023-09-25T23:32:47.692Z,15.70
2023-09-25T23:35:16.783Z,15.70
2023-09-25T23:37:45.237Z,15.70
2023-09-25T23:40:16.186Z,15.60
2023-09-25T23:42:43.501Z,15.60
2023-09-25T23:45:18.041Z,15.50
2023-09-25T23:47:46.782Z,15.50
2023-09-25T23:50:14.916Z,15.50
2023-09-25T23:52:43.762Z,15.50
2023-09-25T23:55:11.299Z,15.50
2023-09-25T23:57:40.130Z,15.50
